Time;durP1;ratioP1;P1;durP2;ratioP2;P2;SDS_P1;SDS_P2;PMS_P1;PMS_P2;Temp;Humidity;BMP_temperature;BMP_pressure;BME280_temperature;BME280_humidity;BME280_pressure;Samples;Min_cycle;Max_cycle;Signal;HPM_P1;HPM_P2
2023/04/26 00:02:03;;;;;;;18.60;5.80;;;2.10;99.90;;;;;;5052252;28;20052;-73
2023/04/26 00:04:30;;;;;;;19.35;5.93;;;2.10;99.90;;;;;;5053544;28;20492;-73
2023/04/26 00:06:56;;;;;;;20.30;5.15;;;2.10;99.90;;;;;;5052157;28;20048;-73
2023/04/26 00:09:22;;;;;;;15.60;5.20;;;2.00;99.90;;;;;;5052879;28;20493;-73
2023/04/26 00:11:48;;;;;;;23.63;5.40;;;2.00;99.90;;;;;;5036229;28;20083;-72
2023/04/26 00:14:14;;;;;;;20.45;4.05;;;1.90;99.90;;;;;;5051953;28;20077;-72
2023/04/26 00:16:40;;;;;;;21.02;3.63;;;1.90;99.90;;;;;;5052218;28;20049;-74
2023/04/26 00:19:05;;;;;;;12.82;3.50;;;1.90;99.90;;;;;;5053112;28;20199;-73
2023/04/26 00:21:31;;;;;;;18.38;3.40;;;1.90;99.90;;;;;;5053208;28;20236;-73
2023/04/26 00:23:57;;;;;;;13.55;3.65;;;1.90;99.90;;;;;;5052996;28;20052;-72
2023/04/26 00:26:23;;;;;;;17.63;3.10;;;1.90;99.90;;;;;;5035325;28;20155;-73
2023/04/26 00:28:49;;;;;;;13.85;3.50;;;1.90;99.90;;;;;;5035265;28;20049;-72
2023/04/26 00:31:16;;;;;;;9.90;2.80;;;2.00;99.90;;;;;;5035550;28;20110;-72
2023/04/26 00:33:42;;;;;;;13.13;3.17;;;2.00;99.90;;;;;;5053034;28;20124;-73
2023/04/26 00:36:09;;;;;;;11.70;3.10;;;2.10;99.90;;;;;;5052013;28;20098;-71
2023/04/26 00:38:35;;;;;;;15.90;3.03;;;2.20;99.90;;;;;;5052946;28;20052;-72
2023/04/26 00:41:00;;;;;;;10.80;2.90;;;2.30;99.90;;;;;;5052991;28;20393;-72
2023/04/26 00:43:26;;;;;;;11.65;2.92;;;2.40;99.90;;;;;;5052975;28;20456;-73
2023/04/26 00:45:52;;;;;;;17.73;3.10;;;2.50;99.90;;;;;;5052983;28;20398;-73
2023/04/26 00:48:19;;;;;;;12.45;3.28;;;2.60;99.90;;;;;;5051641;28;20547;-73
2023/04/26 00:50:46;;;;;;;15.07;4.25;;;2.60;99.90;;;;;;5052710;28;20049;-73
2023/04/26 00:53:13;;;;;;;16.23;4.82;;;2.70;99.90;;;;;;5035207;28;20053;-71
2023/04/26 00:55:43;;;;;;;25.15;4.78;;;2.80;99.90;;;;;;5053341;28;20385;-72
2023/04/26 00:58:09;;;;;;;13.02;4.03;;;2.80;99.90;;;;;;5051468;28;20045;-73
2023/04/26 01:00:35;;;;;;;21.00;6.30;;;2.80;99.90;;;;;;5053591;28;20435;-73
2023/04/26 01:03:01;;;;;;;23.58;7.05;;;2.90;99.90;;;;;;5055403;28;20624;-74
2023/04/26 01:05:27;;;;;;;24.60;7.38;;;2.90;99.90;;;;;;5056409;28;20045;-72
2023/04/26 01:07:53;;;;;;;24.73;7.20;;;3.00;99.90;;;;;;5056250;28;20044;-71
2023/04/26 01:10:18;;;;;;;19.83;6.85;;;3.00;99.90;;;;;;5055393;28;20532;-71
2023/04/26 01:12:45;;;;;;;20.35;5.43;;;3.00;99.90;;;;;;5055286;28;20064;-71
2023/04/26 01:15:11;;;;;;;16.67;5.38;;;3.10;99.90;;;;;;5039460;28;20483;-73
2023/04/26 01:17:37;;;;;;;16.02;5.30;;;3.10;99.90;;;;;;5055452;28;20056;-71
2023/04/26 01:20:04;;;;;;;19.17;6.28;;;3.10;99.90;;;;;;5056610;28;20045;-73
2023/04/26 01:22:33;;;;;;;16.58;5.22;;;3.10;99.90;;;;;;5054831;28;20044;-73
2023/04/26 01:25:03;;;;;;;14.88;4.30;;;3.20;99.90;;;;;;5055912;28;20150;-74
2023/04/26 01:27:28;;;;;;;17.23;4.10;;;3.20;99.90;;;;;;5056530;28;20049;-72
2023/04/26 01:29:54;;;;;;;15.88;3.47;;;3.20;99.90;;;;;;5054527;28;20048;-72
2023/04/26 01:32:20;;;;;;;14.93;3.63;;;3.20;99.90;;;;;;5056520;28;20041;-72
2023/04/26 01:34:46;;;;;;;22.13;3.20;;;3.20;99.90;;;;;;5054879;28;20052;-72
2023/04/26 01:37:11;;;;;;;16.35;2.85;;;3.20;99.90;;;;;;5055037;28;20129;-72
2023/04/26 01:39:37;;;;;;;12.32;2.83;;;3.20;99.90;;;;;;5056011;28;20447;-73
2023/04/26 01:42:03;;;;;;;13.10;3.10;;;3.10;99.90;;;;;;5055428;28;20098;-72
2023/04/26 01:44:29;;;;;;;14.50;3.97;;;3.00;99.90;;;;;;5054724;28;20056;-72
2023/04/26 01:46:55;;;;;;;13.25;4.35;;;2.90;99.90;;;;;;5056150;28;20049;-72
2023/04/26 01:49:21;;;;;;;12.90;3.90;;;2.80;99.90;;;;;;5055910;28;20033;-71
2023/04/26 01:51:46;;;;;;;11.18;4.15;;;2.70;99.90;;;;;;5056264;28;20045;-72
2023/04/26 01:54:12;;;;;;;23.48;3.33;;;2.50;99.90;;;;;;5057293;28;20110;-73
2023/04/26 01:56:38;;;;;;;8.65;3.28;;;2.50;99.90;;;;;;5056368;28;20098;-72
2023/04/26 01:59:04;;;;;;;16.50;2.95;;;2.50;99.90;;;;;;5056313;28;20128;-73
2023/04/26 02:01:30;;;;;;;13.82;2.55;;;2.40;99.90;;;;;;5056374;28;20045;-73
2023/04/26 02:03:55;;;;;;;13.80;2.50;;;2.30;99.90;;;;;;5055219;28;20049;-75
2023/04/26 02:06:21;;;;;;;9.02;3.05;;;2.30;99.90;;;;;;5056202;28;20053;-72
2023/04/26 02:08:48;;;;;;;11.55;2.67;;;2.20;99.90;;;;;;5055253;28;20041;-74
2023/04/26 02:11:13;;;;;;;16.57;2.50;;;2.20;99.90;;;;;;5055472;28;20048;-72
2023/04/26 02:13:39;;;;;;;14.18;2.55;;;2.20;99.90;;;;;;5054993;28;20132;-72
2023/04/26 02:16:06;;;;;;;13.15;2.30;;;2.10;99.90;;;;;;5054892;28;20041;-72
2023/04/26 02:18:32;;;;;;;15.23;2.45;;;2.10;99.90;;;;;;5053962;28;20052;-73
2023/04/26 02:20:58;;;;;;;10.07;2.13;;;2.10;99.90;;;;;;5054636;28;20555;-75
2023/04/26 02:23:23;;;;;;;18.27;2.72;;;2.00;99.90;;;;;;5055494;28;20041;-73
2023/04/26 02:25:49;;;;;;;17.45;2.63;;;2.00;99.90;;;;;;5070611;28;20412;-73
2023/04/26 02:28:15;;;;;;;11.65;2.58;;;2.00;99.90;;;;;;5037170;28;20411;-73
2023/04/26 02:30:41;;;;;;;9.40;2.28;;;1.90;99.90;;;;;;5037358;28;20049;-72
2023/04/26 02:33:07;;;;;;;10.65;2.00;;;1.90;99.90;;;;;;5055381;28;20045;-73
2023/04/26 02:35:35;;;;;;;15.40;2.55;;;1.90;99.90;;;;;;5054133;28;20048;-72
2023/04/26 02:38:00;;;;;;;14.18;2.55;;;1.80;99.90;;;;;;5054750;28;20080;-73
2023/04/26 02:40:26;;;;;;;13.85;2.30;;;1.80;99.90;;;;;;5054408;28;20449;-72
2023/04/26 02:42:52;;;;;;;12.43;2.05;;;1.80;99.90;;;;;;5053687;28;20045;-72
2023/04/26 02:45:17;;;;;;;11.32;2.22;;;1.80;99.90;;;;;;5054519;28;20094;-72
2023/04/26 02:47:43;;;;;;;13.15;2.80;;;1.70;99.90;;;;;;5054276;28;20045;-73
2023/04/26 02:50:09;;;;;;;20.17;2.83;;;1.70;99.90;;;;;;5054499;28;20120;-73
2023/04/26 02:52:35;;;;;;;17.48;3.00;;;1.70;99.90;;;;;;5053397;28;20045;-72
2023/04/26 02:55:05;;;;;;;11.00;2.30;;;1.70;99.90;;;;;;5053088;28;20059;-73
2023/04/26 02:57:31;;;;;;;10.15;2.22;;;1.70;99.90;;;;;;5055196;28;20033;-73
2023/04/26 02:59:57;;;;;;;11.35;2.92;;;1.70;99.90;;;;;;5054361;28;20041;-73
2023/04/26 03:02:23;;;;;;;11.07;1.95;;;1.80;99.90;;;;;;5054776;28;20056;-72
2023/04/26 03:04:49;;;;;;;16.80;2.25;;;1.70;99.90;;;;;;5052942;28;20122;-72
2023/04/26 03:07:15;;;;;;;12.50;2.60;;;1.80;99.90;;;;;;5053348;28;20057;-73
2023/04/26 03:09:41;;;;;;;19.40;2.60;;;1.70;99.90;;;;;;5054128;28;20474;-72
2023/04/26 03:12:07;;;;;;;11.23;2.63;;;1.70;99.90;;;;;;5054225;28;20103;-72
2023/04/26 03:14:33;;;;;;;13.90;2.47;;;1.60;99.90;;;;;;5053031;28;20092;-71
2023/04/26 03:17:02;;;;;;;19.13;2.70;;;1.60;99.90;;;;;;5054049;28;20059;-72
2023/04/26 03:19:28;;;;;;;11.15;2.60;;;1.60;99.90;;;;;;5053181;28;20052;-72
2023/04/26 03:21:54;;;;;;;11.43;2.38;;;1.50;99.90;;;;;;5053906;28;20044;-73
2023/04/26 03:24:20;;;;;;;14.32;2.53;;;1.50;99.90;;;;;;5053479;28;20053;-71
2023/04/26 03:26:46;;;;;;;15.63;2.80;;;1.50;99.90;;;;;;5052643;28;20064;-71
2023/04/26 03:29:12;;;;;;;11.63;2.30;;;1.50;99.90;;;;;;5035845;28;20049;-72
2023/04/26 03:31:38;;;;;;;11.95;2.28;;;1.60;99.90;;;;;;5053009;28;20037;-71
2023/04/26 03:34:04;;;;;;;14.70;2.50;;;1.60;99.90;;;;;;5052442;28;20044;-72
2023/04/26 03:36:30;;;;;;;12.30;2.83;;;1.60;99.90;;;;;;5052807;28;20047;-72
2023/04/26 03:38:55;;;;;;;12.27;2.03;;;1.60;99.90;;;;;;5052720;28;20056;-71
2023/04/26 03:41:22;;;;;;;11.45;2.10;;;1.70;99.90;;;;;;5053935;28;20049;-72
2023/04/26 03:43:48;;;;;;;11.38;2.47;;;1.70;99.90;;;;;;5052212;28;20072;-73
2023/04/26 03:46:14;;;;;;;12.88;2.80;;;1.80;99.90;;;;;;5053631;28;20492;-72
2023/04/26 03:48:39;;;;;;;12.00;3.28;;;1.80;99.90;;;;;;5054384;28;20041;-74
2023/04/26 03:51:05;;;;;;;13.02;2.60;;;1.80;99.90;;;;;;5052747;28;20135;-72
2023/04/26 03:53:31;;;;;;;14.95;2.63;;;1.90;99.90;;;;;;5052464;28;20056;-72
2023/04/26 03:55:57;;;;;;;19.63;3.20;;;1.80;99.90;;;;;;5052608;28;20048;-73
2023/04/26 03:58:26;;;;;;;11.45;2.03;;;1.80;99.90;;;;;;5052342;28;20049;-73
2023/04/26 04:00:55;;;;;;;12.43;3.17;;;1.80;99.90;;;;;;5052531;28;20055;-72
2023/04/26 04:03:21;;;;;;;13.63;2.67;;;1.80;99.90;;;;;;5052139;28;20089;-72
2023/04/26 04:05:46;;;;;;;15.18;2.70;;;1.80;99.90;;;;;;5053012;28;20129;-72
2023/04/26 04:08:12;;;;;;;19.15;2.92;;;1.70;99.90;;;;;;5052232;28;20128;-73
2023/04/26 04:10:38;;;;;;;12.65;2.90;;;1.80;99.90;;;;;;5052419;28;20511;-73
2023/04/26 04:13:04;;;;;;;17.63;2.72;;;1.70;99.90;;;;;;5053274;28;20159;-73
2023/04/26 04:15:29;;;;;;;11.32;2.70;;;1.70;99.90;;;;;;5035511;28;20501;-73
2023/04/26 04:17:55;;;;;;;18.50;3.03;;;1.80;99.90;;;;;;5035576;28;20056;-73
2023/04/26 04:20:21;;;;;;;10.07;2.95;;;1.80;99.90;;;;;;5053069;28;20045;-73
2023/04/26 04:22:47;;;;;;;12.40;2.47;;;1.80;99.90;;;;;;5035482;28;20053;-72
2023/04/26 04:25:13;;;;;;;13.35;3.00;;;1.80;99.90;;;;;;5052841;28;20068;-72
2023/04/26 04:27:41;;;;;;;25.65;5.30;;;1.80;99.90;;;;;;5053399;28;20454;-72
2023/04/26 04:30:08;;;;;;;19.60;3.95;;;1.80;99.90;;;;;;5053560;28;20123;-72
2023/04/26 04:32:34;;;;;;;14.20;3.45;;;1.80;99.90;;;;;;5052016;28;20041;-73
2023/04/26 04:35:00;;;;;;;17.83;3.22;;;1.80;99.90;;;;;;5035862;28;20053;-73
2023/04/26 04:37:27;;;;;;;14.95;3.50;;;1.80;99.90;;;;;;5055516;28;20588;-73
2023/04/26 04:39:53;;;;;;;8.30;2.72;;;1.80;99.90;;;;;;5055810;28;20041;-72
2023/04/26 04:42:20;;;;;;;15.35;3.10;;;1.70;99.90;;;;;;5038958;28;20388;-73
2023/04/26 04:44:46;;;;;;;15.18;3.47;;;1.70;99.90;;;;;;5056848;28;20126;-73
2023/04/26 04:47:12;;;;;;;15.57;2.75;;;1.80;99.90;;;;;;5056783;28;20057;-73
2023/04/26 04:49:38;;;;;;;19.10;3.53;;;1.80;99.90;;;;;;5057055;28;20048;-73
2023/04/26 04:52:05;;;;;;;17.15;3.22;;;1.90;99.90;;;;;;5056426;28;20132;-73
2023/04/26 04:54:31;;;;;;;15.15;3.35;;;2.00;99.90;;;;;;5057017;28;20458;-73
2023/04/26 04:56:57;;;;;;;17.92;3.28;;;2.00;99.90;;;;;;5056909;28;20076;-72
2023/04/26 04:59:23;;;;;;;17.20;3.80;;;2.10;99.90;;;;;;5038719;28;20037;-72
2023/04/26 05:01:49;;;;;;;18.30;3.35;;;2.30;99.90;;;;;;5056184;28;20052;-74
2023/04/26 05:04:16;;;;;;;15.77;3.58;;;2.40;99.90;;;;;;5056337;28;20385;-74
2023/04/26 05:06:42;;;;;;;17.63;4.22;;;2.60;99.90;;;;;;5056557;28;20397;-73
2023/04/26 05:09:08;;;;;;;14.68;3.25;;;2.80;99.90;;;;;;5056604;28;20146;-73
2023/04/26 05:11:34;;;;;;;21.27;3.45;;;2.90;99.90;;;;;;5055378;28;20057;-73
2023/04/26 05:14:00;;;;;;;17.98;3.65;;;2.90;99.90;;;;;;5055559;28;20138;-72
2023/04/26 05:16:26;;;;;;;17.25;3.35;;;3.00;99.90;;;;;;5039024;28;20569;-72
2023/04/26 05:18:52;;;;;;;16.13;3.15;;;3.20;99.90;;;;;;5055336;28;20116;-73
2023/04/26 05:21:18;;;;;;;17.98;3.80;;;3.40;99.90;;;;;;5055194;28;20085;-73
2023/04/26 05:23:44;;;;;;;16.40;3.20;;;3.50;99.90;;;;;;5054565;28;20073;-73
2023/04/26 05:26:13;;;;;;;13.02;3.58;;;3.70;99.90;;;;;;5055994;28;20057;-73
2023/04/26 05:28:40;;;;;;;17.42;3.20;;;4.00;99.90;;;;;;5055133;28;20445;-72
2023/04/26 05:31:05;;;;;;;19.40;3.95;;;4.20;99.90;;;;;;5056172;28;20041;-73
2023/04/26 05:33:31;;;;;;;15.90;3.45;;;4.50;99.90;;;;;;5054900;28;20052;-72
2023/04/26 05:35:57;;;;;;;22.27;3.92;;;4.70;99.90;;;;;;5055933;28;20052;-72
2023/04/26 05:38:23;;;;;;;18.20;3.40;;;4.90;99.90;;;;;;5055793;28;20045;-75
2023/04/26 05:40:49;;;;;;;19.08;3.83;;;5.00;99.90;;;;;;5055326;28;20044;-72
2023/04/26 05:43:15;;;;;;;20.48;4.13;;;5.10;99.90;;;;;;5055900;28;20135;-73
2023/04/26 05:45:54;;;;;;;15.87;3.47;;;5.10;99.90;;;;;;5055611;28;20041;-73
2023/04/26 05:48:21;;;;;;;15.80;3.53;;;5.10;99.90;;;;;;5053549;28;20045;-72
2023/04/26 05:50:48;;;;;;;19.10;3.53;;;5.10;99.90;;;;;;5055908;28;20132;-73
2023/04/26 05:53:14;;;;;;;13.50;2.97;;;5.20;99.90;;;;;;5054614;28;20425;-72
2023/04/26 05:55:43;;;;;;;19.83;3.40;;;5.20;99.90;;;;;;5055643;28;20053;-73
2023/04/26 05:58:09;;;;;;;12.98;3.45;;;5.30;99.90;;;;;;5055694;28;20045;-73
2023/04/26 06:00:36;;;;;;;20.70;3.60;;;5.50;99.90;;;;;;5054291;28;20061;-74
2023/04/26 06:03:02;;;;;;;17.23;3.58;;;5.50;99.90;;;;;;5055355;28;20493;-74
2023/04/26 06:05:27;;;;;;;18.73;3.80;;;5.50;99.90;;;;;;5055243;28;20044;-73
2023/04/26 06:07:53;;;;;;;16.85;3.58;;;5.60;99.90;;;;;;5037285;28;20374;-72
2023/04/26 06:10:19;;;;;;;19.35;4.22;;;5.50;99.90;;;;;;5054326;28;20045;-73
2023/04/26 06:12:46;;;;;;;17.17;3.60;;;5.70;99.90;;;;;;5054144;28;20052;-74
2023/04/26 06:15:11;;;;;;;16.02;3.53;;;5.60;99.90;;;;;;5021177;28;20131;-74
2023/04/26 06:17:37;;;;;;;16.05;3.42;;;5.70;99.90;;;;;;5055050;28;20187;-74
2023/04/26 06:20:08;;;;;;;15.98;4.15;;;5.80;99.90;;;;;;5054105;28;20053;-74
2023/04/26 06:22:33;;;;;;;17.20;3.35;;;5.90;99.90;;;;;;5037794;28;20071;-72
2023/04/26 06:24:59;;;;;;;16.38;3.28;;;6.00;99.90;;;;;;5054222;28;20473;-73
2023/04/26 06:27:25;;;;;;;12.85;3.28;;;6.10;99.90;;;;;;5055650;28;20060;-73
2023/04/26 06:29:51;;;;;;;10.10;3.05;;;6.10;99.90;;;;;;5055076;28;20052;-74
2023/04/26 06:32:17;;;;;;;17.15;3.60;;;6.00;99.90;;;;;;5053653;28;20056;-74
2023/04/26 06:34:44;;;;;;;16.60;2.97;;;6.00;99.90;;;;;;5054843;28;20093;-74
2023/04/26 06:37:10;;;;;;;;;;;5.90;99.90;;;;;;5053945;28;20095;-74
2023/04/26 06:39:37;;;;;;;16.83;2.90;;;5.90;99.90;;;;;;5037216;28;19920;-73
2023/04/26 06:42:06;;;;;;;18.73;3.38;;;5.90;99.90;;;;;;5053582;28;20106;-73
2023/04/26 06:44:31;;;;;;;18.83;3.00;;;5.90;99.90;;;;;;5053661;28;20049;-73
2023/04/26 06:46:57;;;;;;;11.75;3.10;;;5.90;99.90;;;;;;5053817;28;20126;-73
2023/04/26 06:49:23;;;;;;;15.30;3.00;;;6.10;99.90;;;;;;5054344;28;20037;-74
2023/04/26 06:51:51;;;;;;;14.25;2.92;;;6.10;99.90;;;;;;5054651;28;20548;-74
2023/04/26 06:54:18;;;;;;;14.95;2.80;;;6.30;99.90;;;;;;5053536;28;20049;-74
2023/04/26 06:56:43;;;;;;;14.07;3.00;;;6.40;99.90;;;;;;5053919;28;20059;-73
2023/04/26 06:59:09;;;;;;;12.27;2.90;;;6.50;99.90;;;;;;5056019;28;20045;-73
2023/04/26 07:01:35;;;;;;;18.15;3.25;;;6.70;99.90;;;;;;5056106;28;20045;-75
2023/04/26 07:04:02;;;;;;;12.27;2.63;;;6.80;99.90;;;;;;5055945;28;20063;-74
2023/04/26 07:06:30;;;;;;;11.07;3.05;;;7.10;99.90;;;;;;5054706;28;20098;-74
2023/04/26 07:08:57;;;;;;;;;;;7.30;99.90;;;;;;5055326;28;20122;-73
2023/04/26 07:11:23;;;;;;;16.38;2.70;;;7.50;99.90;;;;;;5053323;28;19921;-74
2023/04/26 07:13:49;;;;;;;14.00;2.83;;;7.70;99.90;;;;;;5052775;28;20477;-74
2023/04/26 07:16:14;;;;;;;17.70;3.00;;;7.80;99.90;;;;;;5054001;28;20421;-74
2023/04/26 07:18:41;;;;;;;10.25;2.45;;;7.90;99.90;;;;;;5053759;28;20118;-74
2023/04/26 07:21:07;;;;;;;11.95;3.00;;;7.90;99.90;;;;;;5053416;28;20439;-72
2023/04/26 07:23:32;;;;;;;12.45;2.50;;;8.00;99.90;;;;;;5053872;28;20045;-74
2023/04/26 07:26:00;;;;;;;11.68;2.50;;;8.10;99.90;;;;;;5054095;28;20140;-74
2023/04/26 07:28:26;;;;;;;12.88;2.88;;;8.20;99.90;;;;;;5052525;28;20159;-73
2023/04/26 07:30:52;;;;;;;13.17;2.40;;;8.30;99.90;;;;;;5052709;28;20504;-73
2023/04/26 07:33:18;;;;;;;13.30;2.90;;;8.30;99.90;;;;;;5053792;28;20084;-74
2023/04/26 07:35:44;;;;;;;12.82;2.90;;;8.40;99.90;;;;;;5053539;28;20053;-73
2023/04/26 07:38:10;;;;;;;10.05;2.75;;;8.40;99.90;;;;;;5052101;28;20053;-74
2023/04/26 07:40:36;;;;;;;12.50;3.00;;;8.60;99.90;;;;;;5035940;28;20059;-73
2023/04/26 07:43:02;;;;;;;15.57;3.65;;;8.60;99.90;;;;;;5052513;28;20056;-73
2023/04/26 07:45:28;;;;;;;7.87;2.60;;;8.80;99.90;;;;;;5053743;28;20511;-74
2023/04/26 07:47:53;;;;;;;11.43;2.90;;;8.90;99.90;;;;;;5053310;28;20044;-74
2023/04/26 07:50:19;;;;;;;14.20;2.38;;;8.80;99.90;;;;;;5036619;28;20171;-75
2023/04/26 07:52:45;;;;;;;11.93;3.22;;;8.80;99.90;;;;;;5053293;28;20044;-74
2023/04/26 07:55:11;;;;;;;10.43;2.83;;;8.90;99.90;;;;;;5053555;28;20044;-73
2023/04/26 07:57:37;;;;;;;13.48;2.35;;;9.00;99.90;;;;;;5052612;28;20136;-73
2023/04/26 08:00:06;;;;;;;16.33;3.08;;;9.20;99.90;;;;;;5035008;28;20041;-74
2023/04/26 08:02:32;;;;;;;12.70;2.80;;;9.10;99.90;;;;;;5053547;28;20106;-73
2023/04/26 08:04:58;;;;;;;15.23;2.60;;;9.10;99.90;;;;;;5052933;28;20048;-74
2023/04/26 08:07:23;;;;;;;11.32;3.15;;;9.00;99.90;;;;;;5053093;28;20044;-74
2023/04/26 08:09:49;;;;;;;12.05;3.03;;;9.00;99.90;;;;;;5051496;28;20068;-75
2023/04/26 08:12:15;;;;;;;13.80;2.42;;;9.20;99.90;;;;;;5052176;28;20049;-75
2023/04/26 08:14:41;;;;;;;16.75;3.47;;;9.40;99.90;;;;;;5052943;28;20045;-74
2023/04/26 08:17:11;;;;;;;19.02;5.57;;;9.50;99.90;;;;;;5052150;28;20045;-76
2023/04/26 08:19:37;;;;;;;16.77;4.45;;;9.50;99.90;;;;;;5052990;28;20091;-76
2023/04/26 08:22:03;;;;;;;22.05;4.57;;;9.50;99.90;;;;;;5051692;28;20041;-73
2023/04/26 08:24:28;;;;;;;18.10;4.00;;;9.70;99.90;;;;;;5052887;28;20102;-77
2023/04/26 08:26:55;;;;;;;14.90;3.70;;;9.80;99.90;;;;;;5053170;28;20057;-76
2023/04/26 08:29:22;;;;;;;13.05;3.05;;;10.00;99.90;;;;;;5051566;28;20048;-74
2023/04/26 08:31:47;;;;;;;;;;;9.80;99.90;;;;;;5053121;28;20052;-74
2023/04/26 08:34:13;;;;;;;13.07;2.80;;;9.60;99.90;;;;;;5052116;28;19921;-76
2023/04/26 08:36:40;;;;;;;14.05;2.78;;;9.40;99.90;;;;;;5052794;28;20136;-77
2023/04/26 08:39:06;;;;;;;;;;;9.70;99.90;;;;;;5052308;28;20078;-74
2023/04/26 08:41:41;;;;;;;21.87;4.03;;;9.80;99.90;;;;;;5068671;28;19928;-73
2023/04/26 08:44:07;;;;;;;15.70;4.15;;;9.80;99.90;;;;;;5052260;28;20045;-74
2023/04/26 08:46:54;;;;;;;16.27;3.25;;;9.40;99.90;;;;;;5052760;28;20053;-73
2023/04/26 08:49:40;;;;;;;18.95;4.07;;;9.50;99.90;;;;;;5052794;28;20451;-73
2023/04/26 08:52:11;;;;;;;14.90;2.50;;;9.50;99.90;;;;;;5053196;28;20132;-73
2023/04/26 08:54:38;;;;;;;16.50;2.75;;;9.30;99.90;;;;;;5052810;28;20401;-74
2023/04/26 08:57:06;;;;;;;14.52;3.28;;;9.40;99.90;;;;;;5053175;28;20138;-77
2023/04/26 08:59:38;;;;;;;14.02;3.10;;;9.40;99.90;;;;;;5051243;28;20087;-74
2023/04/26 09:02:05;;;;;;;10.23;2.40;;;9.40;99.90;;;;;;5051755;28;20049;-74
2023/04/26 09:04:32;;;;;;;12.27;2.38;;;9.50;99.90;;;;;;5051309;28;20102;-76
2023/04/26 09:07:02;;;;;;;12.73;2.00;;;9.70;99.90;;;;;;5053118;28;20056;-75
2023/04/26 09:09:40;;;;;;;14.52;2.55;;;9.70;99.90;;;;;;5051225;28;20037;-74
2023/04/26 09:12:07;;;;;;;10.32;2.28;;;9.70;99.90;;;;;;5053082;28;20421;-74
2023/04/26 09:14:33;;;;;;;8.20;2.25;;;10.10;99.90;;;;;;5052380;28;20041;-74
2023/04/26 09:16:59;;;;;;;14.17;2.93;;;10.20;99.90;;;;;;5052274;28;20098;-75
2023/04/26 09:19:43;;;;;;;9.57;2.07;;;10.10;99.90;;;;;;5052337;28;20045;-74
2023/04/26 09:22:09;;;;;;;10.63;1.85;;;10.40;99.90;;;;;;5054157;28;20524;-73
2023/04/26 09:24:51;;;;;;;6.65;1.95;;;10.50;99.90;;;;;;5055074;28;20082;-74
2023/04/26 09:27:20;;;;;;;11.45;2.20;;;10.50;99.90;;;;;;5037903;28;20489;-75
2023/04/26 09:30:04;;;;;;;7.38;1.67;;;10.60;99.90;;;;;;5054368;28;20084;-73
2023/04/26 09:32:44;;;;;;;12.85;1.77;;;10.50;99.90;;;;;;5055846;28;20389;-74
2023/04/26 09:35:21;;;;;;;10.63;2.30;;;10.50;99.90;;;;;;5056119;28;20081;-74
2023/04/26 09:37:55;;;;;;;10.77;2.40;;;10.30;99.90;;;;;;5056430;28;20064;-75
2023/04/26 09:40:22;;;;;;;8.07;2.80;;;10.10;99.90;;;;;;5054485;28;20158;-72
2023/04/26 09:42:56;;;;;;;10.90;1.80;;;;;;;;;;5055650;28;20124;-73
2023/04/26 09:45:23;;;;;;;9.20;1.70;;;9.70;99.90;;;;;;5054957;28;20049;-74
2023/04/26 09:47:48;;;;;;;9.00;2.20;;;9.70;99.90;;;;;;5054458;28;20049;-75
2023/04/26 09:50:25;;;;;;;11.43;2.30;;;9.70;99.90;;;;;;5055456;28;20296;-74
2023/04/26 09:52:51;;;;;;;12.93;2.53;;;9.90;99.90;;;;;;5055488;28;20045;-75
2023/04/26 09:55:28;;;;;;;11.05;2.40;;;10.00;99.90;;;;;;5055364;28;20063;-73
2023/04/26 09:57:59;;;;;;;11.70;2.45;;;10.10;99.90;;;;;;5054143;28;20040;-75
2023/04/26 10:00:26;;;;;;;11.90;2.30;;;10.20;99.90;;;;;;5055329;28;20071;-74
2023/04/26 10:02:53;;;;;;;;;;;10.30;99.90;;;;;;5055857;28;20135;-74
2023/04/26 10:05:19;;;;;;;8.88;1.58;;;10.40;99.90;;;;;;5055421;28;20392;-74
2023/04/26 10:07:46;;;;;;;6.45;1.90;;;10.60;99.90;;;;;;5055552;28;20060;-75
2023/04/26 10:10:12;;;;;;;10.77;1.90;;;10.80;99.90;;;;;;5054374;28;20053;-75
2023/04/26 10:12:41;;;;;;;10.70;2.65;;;10.80;99.90;;;;;;5054217;28;20052;-74
2023/04/26 10:15:10;;;;;;;10.25;2.45;;;10.80;99.90;;;;;;5055286;28;20049;-73
2023/04/26 10:17:38;;;;;;;9.73;1.70;;;;;;;;;;5055059;28;20045;-73
2023/04/26 10:20:07;;;;;;;7.18;2.25;;;10.80;99.90;;;;;;5054933;28;20053;-74
2023/04/26 10:22:39;;;;;;;8.00;1.98;;;10.90;99.90;;;;;;5055065;28;20044;-75
2023/04/26 10:25:08;;;;;;;5.70;1.98;;;11.10;99.90;;;;;;5038322;28;20084;-74
2023/04/26 10:27:43;;;;;;;8.00;1.80;;;11.10;99.90;;;;;;5054987;28;20060;-74
2023/04/26 10:30:21;;;;;;;7.63;1.70;;;10.90;99.90;;;;;;5053421;28;20041;-74
2023/04/26 10:32:56;;;;;;;8.52;1.98;;;10.80;99.90;;;;;;5054838;28;20540;-75
2023/04/26 10:35:24;;;;;;;10.48;1.77;;;10.60;99.90;;;;;;5054895;28;20045;-74
2023/04/26 10:38:00;;;;;;;5.45;2.25;;;10.50;99.90;;;;;;5053864;28;20052;-75
2023/04/26 10:40:28;;;;;;;7.07;1.88;;;10.20;99.90;;;;;;5036881;28;20052;-73
2023/04/26 10:43:15;;;;;;;13.20;1.80;;;10.00;99.90;;;;;;5054823;28;20053;-73
2023/04/26 10:45:44;;;;;;;9.25;2.00;;;9.80;99.90;;;;;;5055128;28;20106;-73
2023/04/26 10:48:19;;;;;;;8.57;1.63;;;9.70;99.90;;;;;;5053522;28;20041;-73
2023/04/26 10:51:00;;;;;;;9.82;1.98;;;9.60;99.90;;;;;;5054227;28;20365;-73
2023/04/26 10:53:47;;;;;;;6.97;1.63;;;9.40;99.90;;;;;;5054285;28;20099;-73
2023/04/26 10:56:24;;;;;;;8.50;1.60;;;9.20;99.90;;;;;;5054339;28;20049;-74
2023/04/26 10:59:11;;;;;;;8.55;1.35;;;9.30;99.90;;;;;;5053410;28;20056;-74
2023/04/26 11:01:38;;;;;;;9.07;1.55;;;9.30;99.90;;;;;;5054411;28;20052;-73
2023/04/26 11:04:06;;;;;;;;;;;9.20;99.90;;;;;;5055187;28;20143;-74
2023/04/26 11:06:51;;;;;;;10.45;1.88;;;8.70;99.90;;;;;;5055335;28;19925;-74
2023/04/26 11:09:35;;;;;;;10.77;2.10;;;8.50;99.90;;;;;;5036371;28;20052;-73
2023/04/26 11:12:06;;;;;;;11.52;2.03;;;8.50;99.90;;;;;;5054948;28;20048;-74
2023/04/26 11:14:36;;;;;;;6.47;1.77;;;8.50;99.90;;;;;;5053786;28;20527;-74
2023/04/26 11:17:05;;;;;;;9.20;1.67;;;8.50;99.90;;;;;;5054085;28;20041;-74
2023/04/26 11:19:31;;;;;;;7.03;1.83;;;8.60;99.90;;;;;;5054373;28;20080;-75
2023/04/26 11:22:01;;;;;;;9.37;1.60;;;8.80;99.90;;;;;;5036410;28;20052;-75
2023/04/26 11:24:29;;;;;;;6.15;1.50;;;9.00;99.90;;;;;;5053574;28;20279;-74
2023/04/26 11:26:55;;;;;;;9.88;1.95;;;9.00;99.90;;;;;;5052691;28;20417;-74
2023/04/26 11:29:20;;;;;;;6.97;1.60;;;9.30;99.90;;;;;;5053030;28;20052;-75
2023/04/26 11:31:57;;;;;;;8.73;1.95;;;9.40;99.90;;;;;;5054563;28;20057;-74
2023/04/26 11:34:37;;;;;;;9.32;1.80;;;9.60;99.90;;;;;;5052832;28;20063;-75
2023/04/26 11:37:05;;;;;;;7.43;1.55;;;9.60;99.90;;;;;;5054375;28;20107;-74
2023/04/26 11:39:35;;;;;;;6.93;1.75;;;9.60;99.90;;;;;;5019426;28;20059;-74
2023/04/26 11:42:09;;;;;;;8.50;1.98;;;9.70;99.90;;;;;;5052829;28;20045;-74
2023/04/26 11:44:36;;;;;;;7.28;1.50;;;9.70;99.90;;;;;;5053141;28;20045;-76
2023/04/26 11:47:03;;;;;;;9.55;2.00;;;9.90;99.90;;;;;;5053179;28;20049;-75
2023/04/26 11:49:30;;;;;;;6.50;1.23;;;10.10;99.90;;;;;;5052195;28;20041;-73
2023/04/26 11:51:56;;;;;;;6.85;2.10;;;10.30;99.90;;;;;;5053429;28;20037;-73
2023/04/26 11:54:38;;;;;;;9.52;1.33;;;10.60;99.90;;;;;;5052686;28;20052;-74
2023/04/26 11:57:17;;;;;;;4.85;1.23;;;10.80;99.90;;;;;;5052765;28;20057;-75
2023/04/26 11:59:43;;;;;;;11.57;1.42;;;11.00;99.90;;;;;;5054018;28;20385;-74
2023/04/26 12:02:09;;;;;;;7.57;1.10;;;11.20;99.90;;;;;;5053427;28;20393;-74
2023/04/26 12:04:36;;;;;;;11.15;1.50;;;11.20;99.90;;;;;;5068910;28;20057;-74
2023/04/26 12:07:03;;;;;;;3.78;0.90;;;11.40;99.90;;;;;;5053354;28;20051;-75
2023/04/26 12:09:30;;;;;;;;;;;11.60;99.90;;;;;;5053626;28;20486;-74
2023/04/26 12:12:06;;;;;;;5.10;1.15;;;11.70;99.90;;;;;;5053412;28;19920;-75
2023/04/26 12:14:32;;;;;;;7.35;0.95;;;;;;;;;;5054040;28;20051;-74
2023/04/26 12:17:00;;;;;;;7.82;1.33;;;;;;;;;;5053927;28;20056;-74
2023/04/26 12:19:27;;;;;;;9.43;1.52;;;;;;;;;;5054999;28;20056;-73
2023/04/26 12:21:53;;;;;;;4.93;1.30;;;;;;;;;;5036696;28;20056;-73
2023/04/26 12:24:22;;;;;;;7.80;1.48;;;;;;;;;;5036270;28;20053;-72
2023/04/26 12:26:48;;;;;;;6.88;1.45;;;;;;;;;;5053479;28;20064;-73
2023/04/26 12:29:14;;;;;;;4.57;1.27;;;;;;;;;;5052595;28;20079;-73
2023/04/26 12:31:40;;;;;;;9.20;1.52;;;;;;;;;;5053805;28;20053;-73
2023/04/26 12:34:07;;;;;;;5.38;1.40;;;;;;;;;;5052063;28;20106;-72
2023/04/26 12:36:33;;;;;;;7.40;1.23;;;;;;;;;;5051996;28;20419;-73
2023/04/26 12:39:02;;;;;;;5.70;1.48;;;;;;;;;;5052000;28;20056;-73
2023/04/26 12:41:28;;;;;;;8.45;1.83;;;;;;;;;;5051613;28;20497;-73
2023/04/26 12:43:54;;;;;;;10.32;1.77;;;;;;;;;;5053023;28;20041;-73
2023/04/26 12:46:20;;;;;;;7.85;1.70;;;;;;;;;;5052917;28;20052;-72
2023/04/26 12:48:46;;;;;;;7.15;2.42;;;;;;;;;;5053356;28;20049;-73
2023/04/26 12:51:12;;;;;;;7.90;1.80;;;;;;;;;;5052158;28;20098;-73
2023/04/26 12:53:38;;;;;;;6.28;1.40;;;;;;;;;;5051858;28;20095;-72
2023/04/26 12:56:05;;;;;;;7.97;2.30;;;;;;;;;;5051751;28;20258;-73
2023/04/26 12:58:31;;;;;;;7.35;1.77;;;;;;;;;;5056638;28;20052;-73